createdAt,value
2023-12-13T00:10:29.033Z,7.85
2023-12-13T00:24:41.337Z,7.62
2023-12-13T00:38:54.519Z,7.49
2023-12-13T00:53:06.620Z,7.83
2023-12-13T01:07:18.549Z,7.85
2023-12-13T01:21:31.141Z,7.72
2023-12-13T01:35:43.539Z,7.48
2023-12-13T01:49:56.655Z,7.45
2023-12-13T02:18:20.991Z,7.24
2023-12-13T02:32:34.392Z,6.99
2023-12-13T02:46:44.987Z,6.73
2023-12-13T03:00:54.282Z,6.63
2023-12-13T03:15:07.476Z,6.92
2023-12-13T03:29:21.543Z,7.31
2023-12-13T03:43:35.574Z,7.52
2023-12-13T03:57:44.839Z,7.74
2023-12-13T04:12:00.241Z,7.93
2023-12-13T04:26:14.146Z,8.07
2023-12-13T04:40:17.015Z,7.57
2023-12-13T04:54:28.860Z,7.21
2023-12-13T05:08:40.966Z,7.18
2023-12-13T05:22:55.021Z,7.49
2023-12-13T05:37:06.723Z,6.95
2023-12-13T05:51:16.868Z,6.28
2023-12-13T06:05:29.733Z,6.44
2023-12-13T06:19:43.248Z,6.81
2023-12-13T06:34:00.872Z,7.11
2023-12-13T06:48:07.035Z,7.47
2023-12-13T07:02:20.061Z,7.74
2023-12-13T07:16:32.649Z,7.86
2023-12-13T07:30:52.185Z,7.91
2023-12-13T07:44:55.618Z,8.05
2023-12-13T07:59:10.305Z,8.09
2023-12-13T08:13:19.635Z,7.99
2023-12-13T08:27:32.780Z,8.11
2023-12-13T08:41:45.500Z,8.37
2023-12-13T08:44:28.937Z,8.37
2023-12-13T08:55:58.060Z,8.45
2023-12-13T09:03:35.428Z,8.47
2023-12-13T09:10:11.127Z,8.62
2023-12-13T09:13:10.106Z,8.71
2023-12-13T09:22:44.578Z,8.81
2023-12-13T09:32:18.664Z,8.94
2023-12-13T09:41:54.354Z,9.01
2023-12-13T09:51:26.762Z,9.17
2023-12-13T10:01:01.363Z,9.28
2023-12-13T10:10:35.681Z,9.24
2023-12-13T10:20:10.309Z,9.20
2023-12-13T10:29:44.360Z,9.19
2023-12-13T10:30:46.845Z,9.22
2023-12-13T10:40:22.427Z,9.27
2023-12-13T10:49:56.352Z,9.34
2023-12-13T10:59:28.991Z,9.33
2023-12-13T11:00:31.427Z,9.36
2023-12-13T11:10:04.853Z,9.29
2023-12-13T11:11:08.973Z,9.31
2023-12-13T11:20:40.721Z,9.22
2023-12-13T11:21:45.744Z,9.25
2023-12-13T11:22:49.623Z,9.29
2023-12-13T11:23:51.951Z,9.35
2023-12-13T11:24:54.409Z,9.39
2023-12-13T11:25:56.888Z,9.43
2023-12-13T11:26:59.327Z,9.46
2023-12-13T11:28:01.732Z,9.48
2023-12-13T11:38:40.820Z,9.38
2023-12-13T11:39:43.135Z,9.44
2023-12-13T11:40:45.665Z,9.47
2023-12-13T11:41:48.111Z,9.52
2023-12-13T11:42:52.255Z,9.57
2023-12-13T11:43:56.047Z,9.61
2023-12-13T11:44:58.425Z,9.66
2023-12-13T11:46:00.872Z,9.68
2023-12-13T11:47:03.330Z,9.70
2023-12-13T11:56:35.617Z,9.67
2023-12-13T11:57:39.112Z,9.70
2023-12-13T11:58:43.083Z,9.75
2023-12-13T11:59:45.539Z,9.81
2023-12-13T12:00:48.013Z,9.86
2023-12-13T12:01:52.022Z,9.89
2023-12-13T12:02:54.338Z,9.91
2023-12-13T12:03:58.381Z,9.94
2023-12-13T12:05:00.814Z,9.94
2023-12-13T12:14:53.319Z,9.85
2023-12-13T12:29:06.572Z,9.94
2023-12-13T12:43:20.634Z,10.29
2023-12-13T12:57:31.728Z,9.89
2023-12-13T13:11:42.477Z,9.29
2023-12-13T13:25:54.209Z,8.81
2023-12-13T13:40:06.644Z,8.46
2023-12-13T13:54:15.171Z,8
2023-12-13T14:08:26.689Z,7.63
2023-12-13T14:22:38.450Z,7.66
2023-12-13T14:36:53.908Z,7.89
2023-12-13T14:51:04.364Z,8.02
2023-12-13T15:05:12.566Z,8.27
2023-12-13T15:19:24.224Z,8.51
2023-12-13T15:33:36.340Z,8.57
2023-12-13T15:39:46.380Z,8.52
2023-12-13T15:47:46.788Z,8.29
2023-12-13T15:58:54.798Z,8.06
2023-12-13T16:01:57.780Z,7.77
2023-12-13T16:16:10.318Z,7.85
2023-12-13T16:18:01.472Z,7.85
2023-12-13T16:19:03.883Z,7.85
2023-12-13T16:28:36.458Z,7.78
2023-12-13T16:30:20.372Z,7.75
2023-12-13T16:38:12.374Z,7.69
2023-12-13T16:44:33.061Z,7.68
2023-12-13T16:47:43.655Z,7.60
2023-12-13T16:57:17.844Z,7.51
2023-12-13T17:06:51.488Z,7.41
2023-12-13T17:12:56.184Z,7.37
2023-12-13T17:16:25.560Z,7.31
2023-12-13T17:25:58.747Z,7.09
2023-12-13T17:27:07.908Z,7.01
2023-12-13T17:35:32.327Z,6.88
2023-12-13T17:41:20.378Z,6.53
2023-12-13T17:55:30.543Z,6.09
2023-12-13T18:09:42.604Z,5.99
2023-12-13T18:23:54.102Z,6.18
2023-12-13T18:38:06.636Z,6.49
2023-12-13T18:52:18.513Z,6.73
2023-12-13T19:06:31.511Z,6.74
2023-12-13T19:20:42.309Z,6.51
2023-12-13T19:20:42.745Z,6.26
2023-12-13T19:34:54.034Z,5.74
2023-12-13T19:49:07.344Z,5.53
2023-12-13T20:03:12.885Z,5.31
2023-12-13T20:17:22.999Z,5.02
2023-12-13T20:31:34.050Z,4.86
2023-12-13T20:45:44.014Z,4.81
2023-12-13T20:59:55.484Z,4.78
2023-12-13T21:14:07.794Z,4.96
2023-12-13T21:28:20.823Z,5.17
2023-12-13T21:42:37.222Z,5.16
2023-12-13T21:56:42.563Z,5.11
2023-12-13T22:10:53.669Z,4.75
2023-12-13T22:25:05.652Z,4.54
2023-12-13T22:39:18.993Z,4.34
2023-12-13T22:53:25.177Z,4.23
2023-12-13T23:07:34.253Z,4.18
2023-12-13T23:21:46.036Z,4.1
2023-12-13T23:35:57.182Z,4.18
2023-12-13T23:50:09.643Z,4.27
